Terminal Aerodrome Forecast
Issued by NWS

Current Version | Previous Version | Text Only | Print | Product List | Glossary Off
Versions: 1 2 3 4 5 6 7 8 9 10 11 12 13 14 15 16 17 18 19 20 21 22 23

000
FTUS41 KPBZ 271700
TAFMGW
TAF
KMGW 271738Z 2718/2818 32005KT P6SM -SHSN BKN015
     FM280800 27003KT P6SM SCT025
     FM281500 26003KT P6SM SKC=

USA.gov is the U.S. government's official web portal to all federal, state and local government web resources and services.